sensor_id;sensor_type;location;lat;lon;timestamp;P1;durP1;ratioP1;P2;durP2;ratioP2
42912;SDS011;50720;54.324;18.558;2023-04-06T00:01:57;19.35;;;8.30;;
42912;SDS011;50720;54.324;18.558;2023-04-06T00:04:29;23.88;;;8.35;;
42912;SDS011;50720;54.324;18.558;2023-04-06T00:06:58;21.63;;;8.77;;
42912;SDS011;50720;54.324;18.558;2023-04-06T00:09:29;18.03;;;7.73;;
42912;SDS011;50720;54.324;18.558;2023-04-06T00:12:03;18.77;;;8.10;;
42912;SDS011;50720;54.324;18.558;2023-04-06T00:14:38;21.60;;;8.23;;
42912;SDS011;50720;54.324;18.558;2023-04-06T00:17:08;16.52;;;7.07;;
42912;SDS011;50720;54.324;18.558;2023-04-06T00:19:42;19.13;;;8.48;;
42912;SDS011;50720;54.324;18.558;2023-04-06T00:22:13;18.65;;;8.43;;
42912;SDS011;50720;54.324;18.558;2023-04-06T00:24:45;15.82;;;8.02;;
42912;SDS011;50720;54.324;18.558;2023-04-06T00:27:18;26.98;;;7.53;;
42912;SDS011;50720;54.324;18.558;2023-04-06T00:29:55;16.73;;;7.75;;
42912;SDS011;50720;54.324;18.558;2023-04-06T00:32:25;18.65;;;8.73;;
42912;SDS011;50720;54.324;18.558;2023-04-06T00:34:58;17.58;;;8.32;;
42912;SDS011;50720;54.324;18.558;2023-04-06T00:37:28;20.10;;;7.70;;
42912;SDS011;50720;54.324;18.558;2023-04-06T00:40:01;16.98;;;8.40;;
42912;SDS011;50720;54.324;18.558;2023-04-06T00:42:35;21.52;;;8.05;;
42912;SDS011;50720;54.324;18.558;2023-04-06T00:45:08;17.60;;;8.00;;
42912;SDS011;50720;54.324;18.558;2023-04-06T00:50:19;20.17;;;7.30;;
42912;SDS011;50720;54.324;18.558;2023-04-06T00:52:51;19.30;;;7.88;;
42912;SDS011;50720;54.324;18.558;2023-04-06T00:55:26;18.95;;;8.45;;
42912;SDS011;50720;54.324;18.558;2023-04-06T00:58:04;22.17;;;8.27;;
42912;SDS011;50720;54.324;18.558;2023-04-06T01:00:35;19.05;;;8.25;;
42912;SDS011;50720;54.324;18.558;2023-04-06T01:03:05;15.35;;;7.47;;
42912;SDS011;50720;54.324;18.558;2023-04-06T01:05:36;15.38;;;6.85;;
42912;SDS011;50720;54.324;18.558;2023-04-06T01:08:11;22.45;;;7.80;;
42912;SDS011;50720;54.324;18.558;2023-04-06T01:13:15;17.10;;;6.82;;
42912;SDS011;50720;54.324;18.558;2023-04-06T01:15:53;18.52;;;7.32;;
42912;SDS011;50720;54.324;18.558;2023-04-06T01:18:25;17.53;;;7.70;;
42912;SDS011;50720;54.324;18.558;2023-04-06T01:20:57;16.30;;;7.47;;
42912;SDS011;50720;54.324;18.558;2023-04-06T01:23:36;14.48;;;6.97;;
42912;SDS011;50720;54.324;18.558;2023-04-06T01:26:06;11.90;;;6.57;;
42912;SDS011;50720;54.324;18.558;2023-04-06T01:28:36;14.93;;;6.22;;
42912;SDS011;50720;54.324;18.558;2023-04-06T01:31:08;14.38;;;6.28;;
42912;SDS011;50720;54.324;18.558;2023-04-06T01:33:39;16.83;;;7.13;;
42912;SDS011;50720;54.324;18.558;2023-04-06T01:36:10;17.42;;;6.43;;
42912;SDS011;50720;54.324;18.558;2023-04-06T01:38:45;16.00;;;7.25;;
42912;SDS011;50720;54.324;18.558;2023-04-06T01:41:16;13.90;;;6.43;;
42912;SDS011;50720;54.324;18.558;2023-04-06T01:43:47;13.80;;;6.70;;
42912;SDS011;50720;54.324;18.558;2023-04-06T01:46:17;13.98;;;8.18;;
42912;SDS011;50720;54.324;18.558;2023-04-06T01:48:47;18.92;;;6.40;;
42912;SDS011;50720;54.324;18.558;2023-04-06T01:51:18;13.68;;;6.13;;
42912;SDS011;50720;54.324;18.558;2023-04-06T01:53:53;13.60;;;6.65;;
42912;SDS011;50720;54.324;18.558;2023-04-06T01:56:23;13.02;;;5.85;;
42912;SDS011;50720;54.324;18.558;2023-04-06T01:58:53;14.30;;;6.47;;
42912;SDS011;50720;54.324;18.558;2023-04-06T02:01:26;13.55;;;6.63;;
42912;SDS011;50720;54.324;18.558;2023-04-06T02:03:56;13.77;;;7.47;;
42912;SDS011;50720;54.324;18.558;2023-04-06T02:06:29;13.45;;;6.40;;
42912;SDS011;50720;54.324;18.558;2023-04-06T02:09:03;20.35;;;7.50;;
42912;SDS011;50720;54.324;18.558;2023-04-06T02:11:34;13.13;;;5.95;;
42912;SDS011;50720;54.324;18.558;2023-04-06T02:14:07;14.23;;;6.65;;
42912;SDS011;50720;54.324;18.558;2023-04-06T02:16:42;15.80;;;7.03;;
42912;SDS011;50720;54.324;18.558;2023-04-06T02:19:12;16.33;;;6.13;;
42912;SDS011;50720;54.324;18.558;2023-04-06T02:21:42;16.30;;;5.73;;
42912;SDS011;50720;54.324;18.558;2023-04-06T02:24:15;22.48;;;8.45;;
42912;SDS011;50720;54.324;18.558;2023-04-06T02:26:45;14.48;;;6.63;;
42912;SDS011;50720;54.324;18.558;2023-04-06T02:29:15;12.75;;;5.93;;
42912;SDS011;50720;54.324;18.558;2023-04-06T02:31:48;14.52;;;6.00;;
42912;SDS011;50720;54.324;18.558;2023-04-06T02:36:52;13.63;;;5.93;;
42912;SDS011;50720;54.324;18.558;2023-04-06T02:39:25;20.73;;;6.90;;
42912;SDS011;50720;54.324;18.558;2023-04-06T02:41:56;12.40;;;5.75;;
42912;SDS011;50720;54.324;18.558;2023-04-06T02:44:26;15.55;;;6.20;;
42912;SDS011;50720;54.324;18.558;2023-04-06T02:46:56;12.02;;;6.15;;
42912;SDS011;50720;54.324;18.558;2023-04-06T02:49:26;17.38;;;6.68;;
42912;SDS011;50720;54.324;18.558;2023-04-06T02:51:59;11.55;;;5.80;;
42912;SDS011;50720;54.324;18.558;2023-04-06T02:54:31;13.80;;;6.15;;
42912;SDS011;50720;54.324;18.558;2023-04-06T02:57:01;12.00;;;5.82;;
42912;SDS011;50720;54.324;18.558;2023-04-06T02:59:33;15.00;;;6.35;;
42912;SDS011;50720;54.324;18.558;2023-04-06T03:02:05;17.60;;;6.32;;
42912;SDS011;50720;54.324;18.558;2023-04-06T03:04:35;17.65;;;7.03;;
42912;SDS011;50720;54.324;18.558;2023-04-06T03:07:11;13.85;;;6.68;;
42912;SDS011;50720;54.324;18.558;2023-04-06T03:09:42;14.60;;;6.93;;
42912;SDS011;50720;54.324;18.558;2023-04-06T03:12:12;14.30;;;7.55;;
42912;SDS011;50720;54.324;18.558;2023-04-06T03:14:42;13.43;;;5.78;;
42912;SDS011;50720;54.324;18.558;2023-04-06T03:17:13;15.27;;;5.72;;
42912;SDS011;50720;54.324;18.558;2023-04-06T03:19:43;10.18;;;5.85;;
42912;SDS011;50720;54.324;18.558;2023-04-06T03:22:17;13.45;;;5.93;;
42912;SDS011;50720;54.324;18.558;2023-04-06T03:24:54;9.90;;;5.65;;
42912;SDS011;50720;54.324;18.558;2023-04-06T03:27:24;15.25;;;6.60;;
42912;SDS011;50720;54.324;18.558;2023-04-06T03:29:59;12.00;;;6.35;;
42912;SDS011;50720;54.324;18.558;2023-04-06T03:32:33;13.25;;;5.63;;
42912;SDS011;50720;54.324;18.558;2023-04-06T03:35:05;12.15;;;6.15;;
42912;SDS011;50720;54.324;18.558;2023-04-06T03:37:38;13.82;;;6.07;;
42912;SDS011;50720;54.324;18.558;2023-04-06T03:40:10;11.90;;;5.15;;
42912;SDS011;50720;54.324;18.558;2023-04-06T03:42:40;12.95;;;6.82;;
42912;SDS011;50720;54.324;18.558;2023-04-06T03:45:11;10.35;;;5.35;;
42912;SDS011;50720;54.324;18.558;2023-04-06T03:47:41;9.90;;;5.40;;
42912;SDS011;50720;54.324;18.558;2023-04-06T03:50:12;11.57;;;5.80;;
42912;SDS011;50720;54.324;18.558;2023-04-06T03:52:42;15.43;;;6.93;;
42912;SDS011;50720;54.324;18.558;2023-04-06T03:55:16;14.88;;;6.28;;
42912;SDS011;50720;54.324;18.558;2023-04-06T03:57:46;18.42;;;8.23;;
42912;SDS011;50720;54.324;18.558;2023-04-06T04:00:16;12.38;;;6.45;;
42912;SDS011;50720;54.324;18.558;2023-04-06T04:02:47;16.17;;;7.65;;
42912;SDS011;50720;54.324;18.558;2023-04-06T04:05:17;15.13;;;6.20;;
42912;SDS011;50720;54.324;18.558;2023-04-06T04:07:50;15.15;;;7.57;;
42912;SDS011;50720;54.324;18.558;2023-04-06T04:10:23;17.58;;;7.22;;
42912;SDS011;50720;54.324;18.558;2023-04-06T04:13:01;21.85;;;6.97;;
42912;SDS011;50720;54.324;18.558;2023-04-06T04:15:33;17.35;;;7.32;;
42912;SDS011;50720;54.324;18.558;2023-04-06T04:18:04;16.27;;;7.68;;
42912;SDS011;50720;54.324;18.558;2023-04-06T04:20:34;18.40;;;8.90;;
42912;SDS011;50720;54.324;18.558;2023-04-06T04:23:04;18.13;;;7.47;;
42912;SDS011;50720;54.324;18.558;2023-04-06T04:25:36;18.27;;;7.65;;
42912;SDS011;50720;54.324;18.558;2023-04-06T04:28:15;14.45;;;7.15;;
42912;SDS011;50720;54.324;18.558;2023-04-06T04:30:49;18.45;;;7.63;;
42912;SDS011;50720;54.324;18.558;2023-04-06T04:33:23;23.15;;;8.38;;
42912;SDS011;50720;54.324;18.558;2023-04-06T04:35:53;21.20;;;8.25;;
42912;SDS011;50720;54.324;18.558;2023-04-06T04:38:28;17.80;;;8.13;;
42912;SDS011;50720;54.324;18.558;2023-04-06T04:41:02;21.73;;;10.40;;
42912;SDS011;50720;54.324;18.558;2023-04-06T04:43:37;18.95;;;8.93;;
42912;SDS011;50720;54.324;18.558;2023-04-06T04:46:07;22.45;;;9.82;;
42912;SDS011;50720;54.324;18.558;2023-04-06T04:48:42;20.13;;;10.55;;
42912;SDS011;50720;54.324;18.558;2023-04-06T04:51:17;28.88;;;13.05;;
42912;SDS011;50720;54.324;18.558;2023-04-06T04:54:04;26.30;;;13.30;;
42912;SDS011;50720;54.324;18.558;2023-04-06T05:01:39;21.60;;;10.27;;
42912;SDS011;50720;54.324;18.558;2023-04-06T05:04:23;20.05;;;9.50;;
42912;SDS011;50720;54.324;18.558;2023-04-06T05:07:02;19.38;;;9.85;;
42912;SDS011;50720;54.324;18.558;2023-04-06T05:09:37;19.10;;;8.10;;
42912;SDS011;50720;54.324;18.558;2023-04-06T05:12:11;19.35;;;9.02;;
42912;SDS011;50720;54.324;18.558;2023-04-06T05:14:41;19.03;;;9.10;;
42912;SDS011;50720;54.324;18.558;2023-04-06T05:17:12;17.48;;;7.85;;
42912;SDS011;50720;54.324;18.558;2023-04-06T05:19:42;16.02;;;7.97;;
42912;SDS011;50720;54.324;18.558;2023-04-06T05:22:15;23.08;;;8.80;;
42912;SDS011;50720;54.324;18.558;2023-04-06T05:24:46;14.80;;;7.55;;
42912;SDS011;50720;54.324;18.558;2023-04-06T05:27:17;18.40;;;7.47;;
42912;SDS011;50720;54.324;18.558;2023-04-06T05:29:47;18.80;;;8.47;;
42912;SDS011;50720;54.324;18.558;2023-04-06T05:32:25;21.55;;;10.00;;
42912;SDS011;50720;54.324;18.558;2023-04-06T05:34:56;17.88;;;7.85;;
42912;SDS011;50720;54.324;18.558;2023-04-06T05:37:26;15.73;;;8.00;;
42912;SDS011;50720;54.324;18.558;2023-04-06T05:39:56;18.73;;;8.52;;
42912;SDS011;50720;54.324;18.558;2023-04-06T05:42:25;18.88;;;9.18;;
42912;SDS011;50720;54.324;18.558;2023-04-06T05:44:56;25.20;;;10.60;;
42912;SDS011;50720;54.324;18.558;2023-04-06T05:47:27;26.70;;;9.13;;
42912;SDS011;50720;54.324;18.558;2023-04-06T05:49:58;23.60;;;9.82;;
42912;SDS011;50720;54.324;18.558;2023-04-06T05:52:28;22.20;;;10.32;;
42912;SDS011;50720;54.324;18.558;2023-04-06T05:55:00;26.60;;;11.23;;
42912;SDS011;50720;54.324;18.558;2023-04-06T05:57:29;27.25;;;10.88;;
42912;SDS011;50720;54.324;18.558;2023-04-06T05:59:59;30.13;;;12.68;;
42912;SDS011;50720;54.324;18.558;2023-04-06T06:05:02;17.55;;;7.75;;
42912;SDS011;50720;54.324;18.558;2023-04-06T06:07:34;12.57;;;5.28;;
42912;SDS011;50720;54.324;18.558;2023-04-06T06:10:04;13.45;;;3.80;;
42912;SDS011;50720;54.324;18.558;2023-04-06T06:12:35;6.35;;;3.38;;
42912;SDS011;50720;54.324;18.558;2023-04-06T06:15:06;9.93;;;4.15;;
42912;SDS011;50720;54.324;18.558;2023-04-06T06:17:37;9.45;;;3.70;;
42912;SDS011;50720;54.324;18.558;2023-04-06T06:20:08;10.23;;;4.07;;
42912;SDS011;50720;54.324;18.558;2023-04-06T06:22:38;7.80;;;4.28;;
42912;SDS011;50720;54.324;18.558;2023-04-06T06:25:08;6.72;;;3.60;;
42912;SDS011;50720;54.324;18.558;2023-04-06T06:27:38;8.88;;;3.45;;
42912;SDS011;50720;54.324;18.558;2023-04-06T06:32:40;7.10;;;3.42;;
42912;SDS011;50720;54.324;18.558;2023-04-06T06:35:10;12.63;;;3.90;;
42912;SDS011;50720;54.324;18.558;2023-04-06T06:37:40;8.18;;;3.63;;
42912;SDS011;50720;54.324;18.558;2023-04-06T06:40:10;11.15;;;4.05;;
42912;SDS011;50720;54.324;18.558;2023-04-06T06:42:43;7.78;;;4.03;;
42912;SDS011;50720;54.324;18.558;2023-04-06T06:45:13;13.85;;;4.55;;
42912;SDS011;50720;54.324;18.558;2023-04-06T06:47:44;5.57;;;3.15;;
42912;SDS011;50720;54.324;18.558;2023-04-06T06:50:14;7.50;;;3.75;;
42912;SDS011;50720;54.324;18.558;2023-04-06T06:52:43;16.08;;;4.57;;
42912;SDS011;50720;54.324;18.558;2023-04-06T06:55:13;3.90;;;2.30;;
42912;SDS011;50720;54.324;18.558;2023-04-06T06:57:43;6.00;;;2.90;;
42912;SDS011;50720;54.324;18.558;2023-04-06T07:00:14;9.18;;;3.40;;
42912;SDS011;50720;54.324;18.558;2023-04-06T07:02:45;7.33;;;3.27;;
42912;SDS011;50720;54.324;18.558;2023-04-06T07:05:16;8.38;;;3.40;;
42912;SDS011;50720;54.324;18.558;2023-04-06T07:07:54;6.47;;;3.30;;
42912;SDS011;50720;54.324;18.558;2023-04-06T07:10:26;8.82;;;3.42;;
42912;SDS011;50720;54.324;18.558;2023-04-06T07:12:55;7.05;;;3.38;;
42912;SDS011;50720;54.324;18.558;2023-04-06T07:15:25;7.75;;;3.58;;
42912;SDS011;50720;54.324;18.558;2023-04-06T07:17:56;8.02;;;4.20;;
42912;SDS011;50720;54.324;18.558;2023-04-06T07:20:27;9.55;;;4.20;;
42912;SDS011;50720;54.324;18.558;2023-04-06T07:22:56;10.70;;;5.20;;
42912;SDS011;50720;54.324;18.558;2023-04-06T07:25:26;7.82;;;4.35;;
42912;SDS011;50720;54.324;18.558;2023-04-06T07:27:56;16.88;;;6.10;;
42912;SDS011;50720;54.324;18.558;2023-04-06T07:30:26;19.00;;;7.40;;
42912;SDS011;50720;54.324;18.558;2023-04-06T07:32:59;17.63;;;8.00;;
42912;SDS011;50720;54.324;18.558;2023-04-06T07:35:29;19.30;;;7.78;;
42912;SDS011;50720;54.324;18.558;2023-04-06T07:37:59;14.00;;;7.40;;
42912;SDS011;50720;54.324;18.558;2023-04-06T07:40:30;18.52;;;7.22;;
42912;SDS011;50720;54.324;18.558;2023-04-06T07:43:00;23.00;;;8.73;;
42912;SDS011;50720;54.324;18.558;2023-04-06T07:45:30;12.45;;;6.65;;
42912;SDS011;50720;54.324;18.558;2023-04-06T07:48:01;16.17;;;7.80;;
42912;SDS011;50720;54.324;18.558;2023-04-06T07:50:32;13.05;;;4.90;;
42912;SDS011;50720;54.324;18.558;2023-04-06T07:53:01;7.68;;;4.45;;
42912;SDS011;50720;54.324;18.558;2023-04-06T07:55:31;8.80;;;4.35;;
42912;SDS011;50720;54.324;18.558;2023-04-06T07:58:01;12.30;;;4.57;;
42912;SDS011;50720;54.324;18.558;2023-04-06T08:00:30;7.35;;;3.80;;
42912;SDS011;50720;54.324;18.558;2023-04-06T08:03:02;9.02;;;4.00;;
42912;SDS011;50720;54.324;18.558;2023-04-06T08:05:33;8.82;;;5.15;;
42912;SDS011;50720;54.324;18.558;2023-04-06T08:08:02;9.55;;;5.00;;
42912;SDS011;50720;54.324;18.558;2023-04-06T08:10:33;10.38;;;4.22;;
42912;SDS011;50720;54.324;18.558;2023-04-06T08:13:02;10.48;;;4.25;;
42912;SDS011;50720;54.324;18.558;2023-04-06T08:15:32;10.60;;;5.05;;
42912;SDS011;50720;54.324;18.558;2023-04-06T08:18:03;11.95;;;5.22;;
42912;SDS011;50720;54.324;18.558;2023-04-06T08:20:33;14.85;;;5.63;;
42912;SDS011;50720;54.324;18.558;2023-04-06T08:23:03;10.68;;;5.25;;
42912;SDS011;50720;54.324;18.558;2023-04-06T08:28:03;11.73;;;4.68;;
42912;SDS011;50720;54.324;18.558;2023-04-06T08:30:33;15.43;;;4.50;;
42912;SDS011;50720;54.324;18.558;2023-04-06T08:33:05;9.30;;;4.50;;
42912;SDS011;50720;54.324;18.558;2023-04-06T08:35:35;8.65;;;4.07;;
42912;SDS011;50720;54.324;18.558;2023-04-06T08:38:05;11.23;;;4.82;;
42912;SDS011;50720;54.324;18.558;2023-04-06T08:40:37;8.57;;;4.32;;
42912;SDS011;50720;54.324;18.558;2023-04-06T08:43:08;9.93;;;4.43;;
42912;SDS011;50720;54.324;18.558;2023-04-06T08:45:42;7.13;;;4.15;;
42912;SDS011;50720;54.324;18.558;2023-04-06T08:48:13;8.15;;;3.83;;
42912;SDS011;50720;54.324;18.558;2023-04-06T08:50:45;7.80;;;3.55;;
42912;SDS011;50720;54.324;18.558;2023-04-06T08:53:15;7.03;;;3.17;;
42912;SDS011;50720;54.324;18.558;2023-04-06T08:55:45;3.57;;;2.70;;
42912;SDS011;50720;54.324;18.558;2023-04-06T08:58:15;7.00;;;3.17;;
42912;SDS011;50720;54.324;18.558;2023-04-06T09:01:05;7.70;;;3.00;;
42912;SDS011;50720;54.324;18.558;2023-04-06T09:03:38;6.97;;;2.65;;
42912;SDS011;50720;54.324;18.558;2023-04-06T09:06:09;8.27;;;2.55;;
42912;SDS011;50720;54.324;18.558;2023-04-06T09:08:39;7.40;;;2.87;;
42912;SDS011;50720;54.324;18.558;2023-04-06T09:11:10;7.38;;;2.92;;
42912;SDS011;50720;54.324;18.558;2023-04-06T09:13:46;4.93;;;2.65;;
42912;SDS011;50720;54.324;18.558;2023-04-06T09:16:18;6.10;;;2.65;;
42912;SDS011;50720;54.324;18.558;2023-04-06T09:18:50;7.05;;;4.43;;
42912;SDS011;50720;54.324;18.558;2023-04-06T09:21:20;6.57;;;2.30;;
42912;SDS011;50720;54.324;18.558;2023-04-06T09:23:58;5.25;;;2.42;;
42912;SDS011;50720;54.324;18.558;2023-04-06T09:26:29;2.92;;;2.15;;
42912;SDS011;50720;54.324;18.558;2023-04-06T09:29:00;8.27;;;2.80;;
42912;SDS011;50720;54.324;18.558;2023-04-06T09:31:31;6.37;;;2.60;;
42912;SDS011;50720;54.324;18.558;2023-04-06T09:34:02;7.30;;;3.13;;
42912;SDS011;50720;54.324;18.558;2023-04-06T09:36:32;5.72;;;2.67;;
42912;SDS011;50720;54.324;18.558;2023-04-06T09:39:05;6.18;;;3.08;;
42912;SDS011;50720;54.324;18.558;2023-04-06T09:41:35;5.18;;;2.58;;
42912;SDS011;50720;54.324;18.558;2023-04-06T09:44:05;3.95;;;2.20;;
42912;SDS011;50720;54.324;18.558;2023-04-06T09:46:36;5.35;;;1.90;;
42912;SDS011;50720;54.324;18.558;2023-04-06T09:49:28;7.05;;;2.53;;
42912;SDS011;50720;54.324;18.558;2023-04-06T09:52:00;4.22;;;2.28;;
42912;SDS011;50720;54.324;18.558;2023-04-06T09:54:31;9.25;;;2.80;;
42912;SDS011;50720;54.324;18.558;2023-04-06T09:57:03;5.75;;;2.33;;
42912;SDS011;50720;54.324;18.558;2023-04-06T09:59:42;4.95;;;2.13;;
42912;SDS011;50720;54.324;18.558;2023-04-06T10:02:21;4.40;;;2.95;;
42912;SDS011;50720;54.324;18.558;2023-04-06T10:05:02;4.85;;;2.88;;
42912;SDS011;50720;54.324;18.558;2023-04-06T10:07:37;4.90;;;2.10;;
42912;SDS011;50720;54.324;18.558;2023-04-06T10:10:25;4.40;;;2.38;;
42912;SDS011;50720;54.324;18.558;2023-04-06T10:12:56;5.97;;;3.53;;
42912;SDS011;50720;54.324;18.558;2023-04-06T10:15:27;5.35;;;2.05;;
42912;SDS011;50720;54.324;18.558;2023-04-06T10:17:58;3.92;;;2.05;;
42912;SDS011;50720;54.324;18.558;2023-04-06T10:20:31;3.05;;;2.15;;
42912;SDS011;50720;54.324;18.558;2023-04-06T10:23:09;4.63;;;2.47;;
42912;SDS011;50720;54.324;18.558;2023-04-06T10:25:51;3.00;;;2.13;;
42912;SDS011;50720;54.324;18.558;2023-04-06T10:28:22;5.72;;;2.40;;
42912;SDS011;50720;54.324;18.558;2023-04-06T10:30:56;1.98;;;1.77;;
42912;SDS011;50720;54.324;18.558;2023-04-06T10:33:27;6.03;;;1.77;;
42912;SDS011;50720;54.324;18.558;2023-04-06T10:36:08;3.70;;;2.90;;
42912;SDS011;50720;54.324;18.558;2023-04-06T10:38:39;2.83;;;1.90;;
42912;SDS011;50720;54.324;18.558;2023-04-06T10:41:10;4.97;;;2.05;;
42912;SDS011;50720;54.324;18.558;2023-04-06T10:43:41;2.28;;;1.60;;
42912;SDS011;50720;54.324;18.558;2023-04-06T10:46:13;4.40;;;2.42;;
42912;SDS011;50720;54.324;18.558;2023-04-06T10:48:53;4.72;;;2.22;;
42912;SDS011;50720;54.324;18.558;2023-04-06T10:51:28;5.68;;;2.60;;
42912;SDS011;50720;54.324;18.558;2023-04-06T10:53:58;2.95;;;1.92;;
42912;SDS011;50720;54.324;18.558;2023-04-06T10:56:29;8.27;;;2.75;;
42912;SDS011;50720;54.324;18.558;2023-04-06T10:59:02;2.67;;;1.60;;
42912;SDS011;50720;54.324;18.558;2023-04-06T11:01:32;4.43;;;1.52;;
42912;SDS011;50720;54.324;18.558;2023-04-06T11:04:01;6.13;;;1.80;;
42912;SDS011;50720;54.324;18.558;2023-04-06T11:06:32;4.15;;;2.20;;
42912;SDS011;50720;54.324;18.558;2023-04-06T11:09:02;6.82;;;2.42;;
42912;SDS011;50720;54.324;18.558;2023-04-06T11:11:32;3.90;;;2.17;;
42912;SDS011;50720;54.324;18.558;2023-04-06T11:14:02;5.47;;;2.45;;
42912;SDS011;50720;54.324;18.558;2023-04-06T11:16:32;2.88;;;1.60;;
42912;SDS011;50720;54.324;18.558;2023-04-06T11:19:03;5.75;;;1.70;;
42912;SDS011;50720;54.324;18.558;2023-04-06T11:21:36;3.75;;;2.00;;
42912;SDS011;50720;54.324;18.558;2023-04-06T11:24:07;6.28;;;2.00;;
42912;SDS011;50720;54.324;18.558;2023-04-06T11:26:39;5.03;;;1.48;;
42912;SDS011;50720;54.324;18.558;2023-04-06T11:29:11;4.93;;;1.58;;
42912;SDS011;50720;54.324;18.558;2023-04-06T11:31:42;4.55;;;1.75;;
42912;SDS011;50720;54.324;18.558;2023-04-06T11:34:15;4.57;;;1.75;;
42912;SDS011;50720;54.324;18.558;2023-04-06T11:36:48;3.80;;;2.08;;
42912;SDS011;50720;54.324;18.558;2023-04-06T11:39:22;5.72;;;2.13;;
42912;SDS011;50720;54.324;18.558;2023-04-06T11:44:30;4.72;;;2.20;;
42912;SDS011;50720;54.324;18.558;2023-04-06T11:47:01;4.72;;;2.58;;
42912;SDS011;50720;54.324;18.558;2023-04-06T11:49:33;5.25;;;1.77;;
42912;SDS011;50720;54.324;18.558;2023-04-06T11:52:15;4.35;;;1.17;;
42912;SDS011;50720;54.324;18.558;2023-04-06T11:54:46;4.65;;;1.63;;
42912;SDS011;50720;54.324;18.558;2023-04-06T11:57:17;5.78;;;2.05;;
42912;SDS011;50720;54.324;18.558;2023-04-06T11:59:48;3.05;;;1.40;;
42912;SDS011;50720;54.324;18.558;2023-04-06T12:02:17;3.63;;;1.85;;
42912;SDS011;50720;54.324;18.558;2023-04-06T12:04:47;3.13;;;1.67;;
42912;SDS011;50720;54.324;18.558;2023-04-06T12:07:18;4.10;;;1.42;;
42912;SDS011;50720;54.324;18.558;2023-04-06T12:09:48;2.72;;;1.48;;
42912;SDS011;50720;54.324;18.558;2023-04-06T12:12:17;2.97;;;1.45;;
42912;SDS011;50720;54.324;18.558;2023-04-06T12:14:47;2.50;;;1.50;;
42912;SDS011;50720;54.324;18.558;2023-04-06T12:17:17;1.60;;;1.33;;
42912;SDS011;50720;54.324;18.558;2023-04-06T12:19:48;4.03;;;1.15;;
42912;SDS011;50720;54.324;18.558;2023-04-06T12:22:19;3.78;;;1.17;;
42912;SDS011;50720;54.324;18.558;2023-04-06T12:24:49;3.13;;;1.30;;
42912;SDS011;50720;54.324;18.558;2023-04-06T12:27:18;4.90;;;0.90;;
42912;SDS011;50720;54.324;18.558;2023-04-06T12:29:49;2.85;;;1.30;;
42912;SDS011;50720;54.324;18.558;2023-04-06T12:32:18;5.38;;;0.85;;
42912;SDS011;50720;54.324;18.558;2023-04-06T12:34:50;4.82;;;1.00;;
42912;SDS011;50720;54.324;18.558;2023-04-06T12:37:22;3.38;;;1.40;;
42912;SDS011;50720;54.324;18.558;2023-04-06T12:39:52;3.17;;;0.95;;
42912;SDS011;50720;54.324;18.558;2023-04-06T12:42:22;0.90;;;0.70;;
42912;SDS011;50720;54.324;18.558;2023-04-06T12:44:52;1.42;;;0.95;;
42912;SDS011;50720;54.324;18.558;2023-04-06T12:47:23;2.35;;;0.70;;
42912;SDS011;50720;54.324;18.558;2023-04-06T12:49:55;3.67;;;0.75;;
42912;SDS011;50720;54.324;18.558;2023-04-06T12:52:26;2.67;;;0.98;;
42912;SDS011;50720;54.324;18.558;2023-04-06T12:54:57;1.60;;;0.70;;
42912;SDS011;50720;54.324;18.558;2023-04-06T12:57:28;5.68;;;0.88;;
42912;SDS011;50720;54.324;18.558;2023-04-06T12:59:58;1.00;;;0.68;;
42912;SDS011;50720;54.324;18.558;2023-04-06T13:02:27;1.52;;;0.90;;
42912;SDS011;50720;54.324;18.558;2023-04-06T13:04:58;1.05;;;0.52;;
42912;SDS011;50720;54.324;18.558;2023-04-06T13:07:29;0.85;;;0.63;;
42912;SDS011;50720;54.324;18.558;2023-04-06T13:10:00;1.85;;;0.65;;
42912;SDS011;50720;54.324;18.558;2023-04-06T13:12:29;1.00;;;0.63;;
42912;SDS011;50720;54.324;18.558;2023-04-06T13:14:59;2.78;;;0.75;;
42912;SDS011;50720;54.324;18.558;2023-04-06T13:17:29;3.17;;;0.60;;
42912;SDS011;50720;54.324;18.558;2023-04-06T13:19:59;0.63;;;0.50;;
42912;SDS011;50720;54.324;18.558;2023-04-06T13:22:30;1.70;;;0.65;;
42912;SDS011;50720;54.324;18.558;2023-04-06T13:25:00;2.25;;;0.65;;
42912;SDS011;50720;54.324;18.558;2023-04-06T13:27:29;0.95;;;0.73;;
42912;SDS011;50720;54.324;18.558;2023-04-06T13:30:01;2.97;;;0.60;;
42912;SDS011;50720;54.324;18.558;2023-04-06T13:32:31;2.63;;;0.57;;
42912;SDS011;50720;54.324;18.558;2023-04-06T13:35:01;2.40;;;0.73;;
42912;SDS011;50720;54.324;18.558;2023-04-06T13:37:33;1.38;;;0.80;;
42912;SDS011;50720;54.324;18.558;2023-04-06T13:40:04;1.58;;;0.90;;
42912;SDS011;50720;54.324;18.558;2023-04-06T13:45:05;7.93;;;1.53;;
42912;SDS011;50720;54.324;18.558;2023-04-06T13:47:35;6.07;;;0.98;;
42912;SDS011;50720;54.324;18.558;2023-04-06T13:50:06;1.73;;;0.50;;
42912;SDS011;50720;54.324;18.558;2023-04-06T13:52:38;1.20;;;0.50;;
42912;SDS011;50720;54.324;18.558;2023-04-06T13:55:07;1.08;;;0.70;;
42912;SDS011;50720;54.324;18.558;2023-04-06T13:57:37;4.13;;;1.05;;
42912;SDS011;50720;54.324;18.558;2023-04-06T14:00:07;3.60;;;1.00;;
42912;SDS011;50720;54.324;18.558;2023-04-06T14:02:38;1.30;;;0.75;;
42912;SDS011;50720;54.324;18.558;2023-04-06T14:05:10;3.60;;;0.80;;
42912;SDS011;50720;54.324;18.558;2023-04-06T14:07:41;3.20;;;2.10;;
42912;SDS011;50720;54.324;18.558;2023-04-06T14:10:11;2.20;;;0.70;;
42912;SDS011;50720;54.324;18.558;2023-04-06T14:12:42;6.05;;;2.60;;
42912;SDS011;50720;54.324;18.558;2023-04-06T14:17:42;2.22;;;0.70;;
42912;SDS011;50720;54.324;18.558;2023-04-06T14:20:12;3.78;;;0.60;;
42912;SDS011;50720;54.324;18.558;2023-04-06T14:22:44;1.65;;;1.00;;
42912;SDS011;50720;54.324;18.558;2023-04-06T14:25:14;1.38;;;0.77;;
42912;SDS011;50720;54.324;18.558;2023-04-06T14:27:44;1.17;;;0.80;;
42912;SDS011;50720;54.324;18.558;2023-04-06T14:30:14;1.30;;;0.73;;
42912;SDS011;50720;54.324;18.558;2023-04-06T14:32:44;3.28;;;0.73;;
42912;SDS011;50720;54.324;18.558;2023-04-06T14:35:14;2.08;;;0.65;;
42912;SDS011;50720;54.324;18.558;2023-04-06T14:37:45;0.75;;;0.65;;
42912;SDS011;50720;54.324;18.558;2023-04-06T14:40:15;0.45;;;0.45;;
42912;SDS011;50720;54.324;18.558;2023-04-06T14:42:45;1.27;;;0.52;;
42912;SDS011;50720;54.324;18.558;2023-04-06T14:45:15;3.03;;;0.87;;
42912;SDS011;50720;54.324;18.558;2023-04-06T14:47:45;3.37;;;1.00;;
42912;SDS011;50720;54.324;18.558;2023-04-06T14:50:14;1.27;;;0.52;;
42912;SDS011;50720;54.324;18.558;2023-04-06T14:52:46;0.93;;;0.60;;
42912;SDS011;50720;54.324;18.558;2023-04-06T14:55:16;2.10;;;0.55;;
42912;SDS011;50720;54.324;18.558;2023-04-06T14:57:45;3.72;;;0.85;;
42912;SDS011;50720;54.324;18.558;2023-04-06T15:00:15;0.90;;;0.60;;
42912;SDS011;50720;54.324;18.558;2023-04-06T15:02:45;2.85;;;1.05;;
42912;SDS011;50720;54.324;18.558;2023-04-06T15:05:16;2.60;;;1.40;;
42912;SDS011;50720;54.324;18.558;2023-04-06T15:07:47;4.45;;;1.00;;
42912;SDS011;50720;54.324;18.558;2023-04-06T15:10:17;2.40;;;0.60;;
42912;SDS011;50720;54.324;18.558;2023-04-06T15:12:47;1.45;;;0.60;;
42912;SDS011;50720;54.324;18.558;2023-04-06T15:15:17;1.83;;;0.73;;
42912;SDS011;50720;54.324;18.558;2023-04-06T15:17:47;3.08;;;1.48;;
42912;SDS011;50720;54.324;18.558;2023-04-06T15:20:17;7.05;;;1.05;;
42912;SDS011;50720;54.324;18.558;2023-04-06T15:22:48;3.33;;;1.10;;